sensor_id;sensor_type;location;lat;lon;timestamp;P1;durP1;ratioP1;P2;durP2;ratioP2
26578;SDS011;14227;47.674;19.320;2023-07-29T00:00:47;50.78;;;19.83;;
26578;SDS011;14227;47.674;19.320;2023-07-29T00:03:13;37.67;;;14.45;;
26578;SDS011;14227;47.674;19.320;2023-07-29T00:05:38;41.95;;;17.63;;
26578;SDS011;14227;47.674;19.320;2023-07-29T00:08:04;33.13;;;14.13;;
26578;SDS011;14227;47.674;19.320;2023-07-29T00:10:35;25.10;;;13.57;;
26578;SDS011;14227;47.674;19.320;2023-07-29T00:13:02;39.88;;;19.10;;
26578;SDS011;14227;47.674;19.320;2023-07-29T00:15:28;25.15;;;10.73;;
26578;SDS011;14227;47.674;19.320;2023-07-29T00:17:54;25.85;;;12.13;;
26578;SDS011;14227;47.674;19.320;2023-07-29T00:20:20;33.08;;;14.43;;
26578;SDS011;14227;47.674;19.320;2023-07-29T00:22:46;40.20;;;16.08;;
26578;SDS011;14227;47.674;19.320;2023-07-29T00:25:11;20.90;;;10.60;;
26578;SDS011;14227;47.674;19.320;2023-07-29T00:27:37;50.33;;;18.63;;
26578;SDS011;14227;47.674;19.320;2023-07-29T00:30:03;33.85;;;12.18;;
26578;SDS011;14227;47.674;19.320;2023-07-29T00:32:30;30.55;;;12.68;;
26578;SDS011;14227;47.674;19.320;2023-07-29T00:34:56;42.65;;;19.55;;
26578;SDS011;14227;47.674;19.320;2023-07-29T00:37:22;63.30;;;22.35;;
26578;SDS011;14227;47.674;19.320;2023-07-29T00:39:47;62.55;;;21.10;;
26578;SDS011;14227;47.674;19.320;2023-07-29T00:42:13;50.92;;;16.55;;
26578;SDS011;14227;47.674;19.320;2023-07-29T00:44:39;46.22;;;17.58;;
26578;SDS011;14227;47.674;19.320;2023-07-29T00:47:04;39.45;;;15.85;;
26578;SDS011;14227;47.674;19.320;2023-07-29T00:49:32;50.53;;;20.80;;
26578;SDS011;14227;47.674;19.320;2023-07-29T00:51:57;50.28;;;20.10;;
26578;SDS011;14227;47.674;19.320;2023-07-29T00:54:23;42.42;;;16.75;;
26578;SDS011;14227;47.674;19.320;2023-07-29T00:56:49;38.38;;;16.05;;
26578;SDS011;14227;47.674;19.320;2023-07-29T00:59:15;58.67;;;23.58;;
26578;SDS011;14227;47.674;19.320;2023-07-29T01:01:41;48.50;;;18.45;;
26578;SDS011;14227;47.674;19.320;2023-07-29T01:04:07;29.55;;;14.50;;
26578;SDS011;14227;47.674;19.320;2023-07-29T01:09:20;61.72;;;23.13;;
26578;SDS011;14227;47.674;19.320;2023-07-29T01:17:23;53.85;;;20.40;;
26578;SDS011;14227;47.674;19.320;2023-07-29T01:20:01;46.65;;;16.98;;
26578;SDS011;14227;47.674;19.320;2023-07-29T01:22:31;48.75;;;17.85;;
26578;SDS011;14227;47.674;19.320;2023-07-29T01:24:59;29.38;;;12.85;;
26578;SDS011;14227;47.674;19.320;2023-07-29T01:27:25;41.20;;;15.40;;
26578;SDS011;14227;47.674;19.320;2023-07-29T01:29:51;26.55;;;12.43;;
26578;SDS011;14227;47.674;19.320;2023-07-29T01:37:36;34.03;;;13.05;;
26578;SDS011;14227;47.674;19.320;2023-07-29T01:40:04;64.20;;;21.80;;
26578;SDS011;14227;47.674;19.320;2023-07-29T01:42:33;40.00;;;16.92;;
26578;SDS011;14227;47.674;19.320;2023-07-29T01:44:59;38.65;;;16.10;;
26578;SDS011;14227;47.674;19.320;2023-07-29T01:47:25;48.33;;;15.93;;
26578;SDS011;14227;47.674;19.320;2023-07-29T01:49:51;43.08;;;15.75;;
26578;SDS011;14227;47.674;19.320;2023-07-29T01:52:16;51.25;;;17.80;;
26578;SDS011;14227;47.674;19.320;2023-07-29T01:54:43;38.20;;;15.95;;
26578;SDS011;14227;47.674;19.320;2023-07-29T01:57:08;36.45;;;16.45;;
26578;SDS011;14227;47.674;19.320;2023-07-29T01:59:34;28.65;;;13.07;;
26578;SDS011;14227;47.674;19.320;2023-07-29T02:02:00;41.13;;;18.67;;
26578;SDS011;14227;47.674;19.320;2023-07-29T02:04:25;70.53;;;23.00;;
26578;SDS011;14227;47.674;19.320;2023-07-29T02:06:51;45.25;;;17.90;;
26578;SDS011;14227;47.674;19.320;2023-07-29T02:09:16;57.75;;;19.35;;
26578;SDS011;14227;47.674;19.320;2023-07-29T02:11:42;52.83;;;21.10;;
26578;SDS011;14227;47.674;19.320;2023-07-29T02:14:08;38.40;;;17.23;;
26578;SDS011;14227;47.674;19.320;2023-07-29T02:16:33;54.67;;;19.52;;
26578;SDS011;14227;47.674;19.320;2023-07-29T02:18:59;71.68;;;24.35;;
26578;SDS011;14227;47.674;19.320;2023-07-29T02:21:25;104.10;;;24.98;;
26578;SDS011;14227;47.674;19.320;2023-07-29T02:23:51;52.50;;;16.23;;
26578;SDS011;14227;47.674;19.320;2023-07-29T02:26:17;28.08;;;12.98;;
26578;SDS011;14227;47.674;19.320;2023-07-29T02:28:42;36.67;;;16.50;;
26578;SDS011;14227;47.674;19.320;2023-07-29T02:31:09;54.80;;;19.33;;
26578;SDS011;14227;47.674;19.320;2023-07-29T02:33:35;60.42;;;19.95;;
26578;SDS011;14227;47.674;19.320;2023-07-29T02:36:01;24.23;;;10.93;;
26578;SDS011;14227;47.674;19.320;2023-07-29T02:38:27;51.90;;;17.38;;
26578;SDS011;14227;47.674;19.320;2023-07-29T02:40:52;19.90;;;8.27;;
26578;SDS011;14227;47.674;19.320;2023-07-29T02:43:18;31.52;;;12.38;;
26578;SDS011;14227;47.674;19.320;2023-07-29T02:45:43;41.35;;;15.55;;
26578;SDS011;14227;47.674;19.320;2023-07-29T02:48:09;30.85;;;12.68;;
26578;SDS011;14227;47.674;19.320;2023-07-29T02:50:35;22.42;;;11.52;;
26578;SDS011;14227;47.674;19.320;2023-07-29T02:53:00;25.77;;;9.95;;
26578;SDS011;14227;47.674;19.320;2023-07-29T02:55:26;47.03;;;16.50;;
26578;SDS011;14227;47.674;19.320;2023-07-29T02:57:52;61.92;;;21.20;;
26578;SDS011;14227;47.674;19.320;2023-07-29T03:00:18;160.68;;;32.20;;
26578;SDS011;14227;47.674;19.320;2023-07-29T03:02:43;189.27;;;35.70;;
26578;SDS011;14227;47.674;19.320;2023-07-29T03:05:09;34.25;;;15.55;;
26578;SDS011;14227;47.674;19.320;2023-07-29T03:07:35;27.20;;;10.55;;
26578;SDS011;14227;47.674;19.320;2023-07-29T03:10:00;31.95;;;12.60;;
26578;SDS011;14227;47.674;19.320;2023-07-29T03:12:26;16.60;;;9.18;;
26578;SDS011;14227;47.674;19.320;2023-07-29T03:14:52;22.15;;;10.65;;
26578;SDS011;14227;47.674;19.320;2023-07-29T03:17:18;40.95;;;16.42;;
26578;SDS011;14227;47.674;19.320;2023-07-29T03:19:43;33.47;;;14.57;;
26578;SDS011;14227;47.674;19.320;2023-07-29T03:22:09;38.13;;;14.35;;
26578;SDS011;14227;47.674;19.320;2023-07-29T03:24:35;38.65;;;16.20;;
26578;SDS011;14227;47.674;19.320;2023-07-29T03:27:01;30.58;;;12.52;;
26578;SDS011;14227;47.674;19.320;2023-07-29T03:29:26;40.15;;;17.50;;
26578;SDS011;14227;47.674;19.320;2023-07-29T03:31:52;40.03;;;17.55;;
26578;SDS011;14227;47.674;19.320;2023-07-29T03:34:17;74.22;;;22.92;;
26578;SDS011;14227;47.674;19.320;2023-07-29T03:36:43;45.15;;;17.02;;
26578;SDS011;14227;47.674;19.320;2023-07-29T03:39:12;58.53;;;22.10;;
26578;SDS011;14227;47.674;19.320;2023-07-29T03:41:38;41.60;;;18.05;;
26578;SDS011;14227;47.674;19.320;2023-07-29T03:44:04;33.78;;;14.68;;
26578;SDS011;14227;47.674;19.320;2023-07-29T03:46:30;41.13;;;17.60;;
26578;SDS011;14227;47.674;19.320;2023-07-29T03:48:56;44.05;;;17.00;;
26578;SDS011;14227;47.674;19.320;2023-07-29T03:51:22;38.95;;;18.60;;
26578;SDS011;14227;47.674;19.320;2023-07-29T03:53:49;44.45;;;18.85;;
26578;SDS011;14227;47.674;19.320;2023-07-29T03:56:15;47.80;;;21.30;;
26578;SDS011;14227;47.674;19.320;2023-07-29T03:58:41;44.83;;;18.55;;
26578;SDS011;14227;47.674;19.320;2023-07-29T04:01:08;38.90;;;17.83;;
26578;SDS011;14227;47.674;19.320;2023-07-29T04:03:34;48.20;;;21.80;;
26578;SDS011;14227;47.674;19.320;2023-07-29T04:06:00;35.00;;;17.90;;
26578;SDS011;14227;47.674;19.320;2023-07-29T04:08:26;43.33;;;18.42;;
26578;SDS011;14227;47.674;19.320;2023-07-29T04:10:51;30.13;;;16.80;;
26578;SDS011;14227;47.674;19.320;2023-07-29T04:13:17;29.40;;;18.25;;
26578;SDS011;14227;47.674;19.320;2023-07-29T04:15:43;50.15;;;24.13;;
26578;SDS011;14227;47.674;19.320;2023-07-29T04:18:09;43.92;;;22.83;;
26578;SDS011;14227;47.674;19.320;2023-07-29T04:20:35;47.05;;;20.55;;
26578;SDS011;14227;47.674;19.320;2023-07-29T04:23:00;48.30;;;20.60;;
26578;SDS011;14227;47.674;19.320;2023-07-29T04:25:26;20.33;;;12.10;;
26578;SDS011;14227;47.674;19.320;2023-07-29T04:27:52;26.83;;;14.23;;
26578;SDS011;14227;47.674;19.320;2023-07-29T04:30:18;28.95;;;15.77;;
26578;SDS011;14227;47.674;19.320;2023-07-29T04:32:44;24.42;;;12.73;;
26578;SDS011;14227;47.674;19.320;2023-07-29T04:35:10;32.25;;;17.25;;
26578;SDS011;14227;47.674;19.320;2023-07-29T04:37:35;25.55;;;16.88;;
26578;SDS011;14227;47.674;19.320;2023-07-29T04:40:01;31.85;;;16.98;;
26578;SDS011;14227;47.674;19.320;2023-07-29T04:42:27;21.83;;;12.80;;
26578;SDS011;14227;47.674;19.320;2023-07-29T04:44:53;22.48;;;13.73;;
26578;SDS011;14227;47.674;19.320;2023-07-29T04:47:18;21.83;;;11.85;;
26578;SDS011;14227;47.674;19.320;2023-07-29T04:49:44;22.33;;;13.30;;
26578;SDS011;14227;47.674;19.320;2023-07-29T04:52:10;15.25;;;11.02;;
26578;SDS011;14227;47.674;19.320;2023-07-29T04:54:35;19.38;;;12.98;;
26578;SDS011;14227;47.674;19.320;2023-07-29T04:57:01;28.45;;;16.45;;
26578;SDS011;14227;47.674;19.320;2023-07-29T04:59:27;24.98;;;15.10;;
26578;SDS011;14227;47.674;19.320;2023-07-29T05:01:52;29.60;;;20.10;;
26578;SDS011;14227;47.674;19.320;2023-07-29T05:04:18;27.52;;;16.02;;
26578;SDS011;14227;47.674;19.320;2023-07-29T05:06:44;28.42;;;16.80;;
26578;SDS011;14227;47.674;19.320;2023-07-29T05:09:16;25.60;;;15.85;;
26578;SDS011;14227;47.674;19.320;2023-07-29T05:11:43;30.83;;;18.02;;
26578;SDS011;14227;47.674;19.320;2023-07-29T05:14:14;19.48;;;13.45;;
26578;SDS011;14227;47.674;19.320;2023-07-29T05:16:40;21.10;;;12.57;;
26578;SDS011;14227;47.674;19.320;2023-07-29T05:19:06;23.27;;;14.63;;
26578;SDS011;14227;47.674;19.320;2023-07-29T05:21:32;30.13;;;17.60;;
26578;SDS011;14227;47.674;19.320;2023-07-29T05:23:58;25.70;;;12.35;;
26578;SDS011;14227;47.674;19.320;2023-07-29T05:26:23;15.65;;;11.32;;
26578;SDS011;14227;47.674;19.320;2023-07-29T05:28:49;20.90;;;12.50;;
26578;SDS011;14227;47.674;19.320;2023-07-29T05:31:15;16.48;;;10.60;;
26578;SDS011;14227;47.674;19.320;2023-07-29T05:33:40;17.52;;;10.00;;
26578;SDS011;14227;47.674;19.320;2023-07-29T05:36:06;19.38;;;10.35;;
26578;SDS011;14227;47.674;19.320;2023-07-29T05:38:32;14.18;;;9.20;;
26578;SDS011;14227;47.674;19.320;2023-07-29T05:40:57;13.90;;;8.93;;
26578;SDS011;14227;47.674;19.320;2023-07-29T05:43:24;18.27;;;9.13;;
26578;SDS011;14227;47.674;19.320;2023-07-29T05:45:50;16.30;;;9.18;;
26578;SDS011;14227;47.674;19.320;2023-07-29T05:48:16;11.00;;;6.95;;
26578;SDS011;14227;47.674;19.320;2023-07-29T05:50:42;13.55;;;8.73;;
26578;SDS011;14227;47.674;19.320;2023-07-29T05:53:07;10.95;;;9.30;;
26578;SDS011;14227;47.674;19.320;2023-07-29T05:55:33;11.38;;;7.20;;
26578;SDS011;14227;47.674;19.320;2023-07-29T05:57:59;10.52;;;6.53;;
26578;SDS011;14227;47.674;19.320;2023-07-29T06:00:24;13.55;;;6.10;;
26578;SDS011;14227;47.674;19.320;2023-07-29T06:02:50;9.45;;;5.30;;
26578;SDS011;14227;47.674;19.320;2023-07-29T06:05:16;10.32;;;5.95;;
26578;SDS011;14227;47.674;19.320;2023-07-29T06:07:42;6.90;;;5.32;;
26578;SDS011;14227;47.674;19.320;2023-07-29T06:10:13;6.95;;;4.45;;
26578;SDS011;14227;47.674;19.320;2023-07-29T06:12:42;6.90;;;4.78;;
26578;SDS011;14227;47.674;19.320;2023-07-29T06:15:08;8.73;;;4.35;;
26578;SDS011;14227;47.674;19.320;2023-07-29T06:17:35;4.93;;;3.83;;
26578;SDS011;14227;47.674;19.320;2023-07-29T06:20:00;6.10;;;4.10;;
26578;SDS011;14227;47.674;19.320;2023-07-29T06:22:27;5.05;;;4.18;;
26578;SDS011;14227;47.674;19.320;2023-07-29T06:24:53;8.32;;;4.63;;
26578;SDS011;14227;47.674;19.320;2023-07-29T06:27:18;6.82;;;4.07;;
26578;SDS011;14227;47.674;19.320;2023-07-29T06:29:44;6.32;;;4.07;;
26578;SDS011;14227;47.674;19.320;2023-07-29T06:32:10;8.38;;;4.38;;
26578;SDS011;14227;47.674;19.320;2023-07-29T06:34:36;7.70;;;4.40;;
26578;SDS011;14227;47.674;19.320;2023-07-29T06:37:02;6.10;;;3.97;;
26578;SDS011;14227;47.674;19.320;2023-07-29T06:39:27;5.72;;;3.97;;
26578;SDS011;14227;47.674;19.320;2023-07-29T06:41:53;6.75;;;3.72;;
26578;SDS011;14227;47.674;19.320;2023-07-29T06:44:19;5.03;;;3.72;;
26578;SDS011;14227;47.674;19.320;2023-07-29T06:46:44;5.63;;;3.35;;
26578;SDS011;14227;47.674;19.320;2023-07-29T06:49:10;5.88;;;3.70;;
26578;SDS011;14227;47.674;19.320;2023-07-29T06:51:36;5.45;;;3.55;;
26578;SDS011;14227;47.674;19.320;2023-07-29T06:54:04;7.70;;;4.20;;
26578;SDS011;14227;47.674;19.320;2023-07-29T06:56:29;8.63;;;3.58;;
26578;SDS011;14227;47.674;19.320;2023-07-29T06:58:55;4.07;;;3.25;;
26578;SDS011;14227;47.674;19.320;2023-07-29T07:01:21;5.05;;;3.10;;
26578;SDS011;14227;47.674;19.320;2023-07-29T07:03:47;6.20;;;3.67;;
26578;SDS011;14227;47.674;19.320;2023-07-29T07:06:12;9.45;;;3.10;;
26578;SDS011;14227;47.674;19.320;2023-07-29T07:08:38;7.68;;;3.60;;
26578;SDS011;14227;47.674;19.320;2023-07-29T07:11:04;7.22;;;3.40;;
26578;SDS011;14227;47.674;19.320;2023-07-29T07:13:29;8.23;;;3.75;;
26578;SDS011;14227;47.674;19.320;2023-07-29T07:15:55;7.53;;;3.75;;
26578;SDS011;14227;47.674;19.320;2023-07-29T07:18:22;5.35;;;3.45;;
26578;SDS011;14227;47.674;19.320;2023-07-29T07:20:48;4.57;;;2.80;;
26578;SDS011;14227;47.674;19.320;2023-07-29T07:23:15;4.65;;;3.33;;
26578;SDS011;14227;47.674;19.320;2023-07-29T07:25:41;6.57;;;3.20;;
26578;SDS011;14227;47.674;19.320;2023-07-29T07:28:10;5.88;;;3.05;;
26578;SDS011;14227;47.674;19.320;2023-07-29T07:30:39;4.90;;;2.70;;
26578;SDS011;14227;47.674;19.320;2023-07-29T07:33:06;9.65;;;2.72;;
26578;SDS011;14227;47.674;19.320;2023-07-29T07:35:32;4.00;;;2.65;;
26578;SDS011;14227;47.674;19.320;2023-07-29T07:37:57;6.18;;;2.90;;
26578;SDS011;14227;47.674;19.320;2023-07-29T07:40:24;4.45;;;3.08;;
26578;SDS011;14227;47.674;19.320;2023-07-29T07:42:50;2.78;;;2.40;;
26578;SDS011;14227;47.674;19.320;2023-07-29T07:45:15;3.42;;;2.30;;
26578;SDS011;14227;47.674;19.320;2023-07-29T07:47:43;4.70;;;2.40;;
26578;SDS011;14227;47.674;19.320;2023-07-29T07:50:08;5.82;;;2.63;;
26578;SDS011;14227;47.674;19.320;2023-07-29T07:52:34;3.58;;;2.05;;
26578;SDS011;14227;47.674;19.320;2023-07-29T07:55:00;4.97;;;2.70;;
26578;SDS011;14227;47.674;19.320;2023-07-29T07:57:27;3.33;;;2.20;;
26578;SDS011;14227;47.674;19.320;2023-07-29T07:59:53;3.50;;;2.53;;
26578;SDS011;14227;47.674;19.320;2023-07-29T08:02:18;4.97;;;2.33;;
26578;SDS011;14227;47.674;19.320;2023-07-29T08:04:45;6.57;;;2.40;;
26578;SDS011;14227;47.674;19.320;2023-07-29T08:07:11;5.70;;;2.35;;
26578;SDS011;14227;47.674;19.320;2023-07-29T08:09:36;2.10;;;1.80;;
26578;SDS011;14227;47.674;19.320;2023-07-29T08:12:02;5.57;;;2.17;;
26578;SDS011;14227;47.674;19.320;2023-07-29T08:14:28;2.22;;;2.03;;
26578;SDS011;14227;47.674;19.320;2023-07-29T08:16:53;3.40;;;1.95;;
26578;SDS011;14227;47.674;19.320;2023-07-29T08:19:19;3.13;;;1.30;;
26578;SDS011;14227;47.674;19.320;2023-07-29T08:21:45;1.85;;;1.52;;
26578;SDS011;14227;47.674;19.320;2023-07-29T08:24:10;2.88;;;1.73;;
26578;SDS011;14227;47.674;19.320;2023-07-29T08:26:36;2.80;;;2.00;;
26578;SDS011;14227;47.674;19.320;2023-07-29T08:29:02;2.13;;;1.92;;
26578;SDS011;14227;47.674;19.320;2023-07-29T08:38:15;2.30;;;2.10;;
26578;SDS011;14227;47.674;19.320;2023-07-29T08:44:30;6.03;;;2.80;;
26578;SDS011;14227;47.674;19.320;2023-07-29T08:49:33;4.55;;;1.98;;
26578;SDS011;14227;47.674;19.320;2023-07-29T08:52:00;2.22;;;2.00;;
26578;SDS011;14227;47.674;19.320;2023-07-29T08:54:26;1.70;;;1.60;;
26578;SDS011;14227;47.674;19.320;2023-07-29T08:56:52;2.55;;;2.03;;
26578;SDS011;14227;47.674;19.320;2023-07-29T08:59:18;7.00;;;2.40;;
26578;SDS011;14227;47.674;19.320;2023-07-29T09:01:44;2.90;;;1.95;;
26578;SDS011;14227;47.674;19.320;2023-07-29T09:04:11;2.55;;;1.63;;
26578;SDS011;14227;47.674;19.320;2023-07-29T09:06:37;6.38;;;2.03;;
26578;SDS011;14227;47.674;19.320;2023-07-29T09:09:12;4.50;;;1.80;;
26578;SDS011;14227;47.674;19.320;2023-07-29T09:11:37;2.60;;;2.13;;
26578;SDS011;14227;47.674;19.320;2023-07-29T09:14:03;3.10;;;1.85;;
26578;SDS011;14227;47.674;19.320;2023-07-29T09:16:29;6.85;;;1.95;;
26578;SDS011;14227;47.674;19.320;2023-07-29T09:18:55;2.15;;;1.60;;
26578;SDS011;14227;47.674;19.320;2023-07-29T09:21:22;1.30;;;1.20;;
26578;SDS011;14227;47.674;19.320;2023-07-29T09:23:56;1.42;;;1.30;;
26578;SDS011;14227;47.674;19.320;2023-07-29T09:26:25;1.10;;;1.10;;
26578;SDS011;14227;47.674;19.320;2023-07-29T09:28:52;1.98;;;1.40;;
26578;SDS011;14227;47.674;19.320;2023-07-29T09:31:22;1.85;;;1.35;;
26578;SDS011;14227;47.674;19.320;2023-07-29T09:33:49;1.20;;;1.10;;
26578;SDS011;14227;47.674;19.320;2023-07-29T09:36:21;1.65;;;1.40;;
26578;SDS011;14227;47.674;19.320;2023-07-29T09:38:47;2.67;;;1.48;;
26578;SDS011;14227;47.674;19.320;2023-07-29T09:41:13;4.15;;;1.40;;
26578;SDS011;14227;47.674;19.320;2023-07-29T09:43:40;3.80;;;1.65;;
26578;SDS011;14227;47.674;19.320;2023-07-29T09:46:06;2.50;;;1.40;;
26578;SDS011;14227;47.674;19.320;2023-07-29T09:48:35;5.65;;;1.40;;
26578;SDS011;14227;47.674;19.320;2023-07-29T09:51:11;1.42;;;1.30;;
26578;SDS011;14227;47.674;19.320;2023-07-29T09:53:44;7.97;;;1.80;;
26578;SDS011;14227;47.674;19.320;2023-07-29T09:56:11;3.40;;;1.20;;
26578;SDS011;14227;47.674;19.320;2023-07-29T09:58:38;3.40;;;1.30;;
26578;SDS011;14227;47.674;19.320;2023-07-29T10:01:07;1.95;;;1.63;;
26578;SDS011;14227;47.674;19.320;2023-07-29T10:03:33;3.63;;;1.27;;
26578;SDS011;14227;47.674;19.320;2023-07-29T10:06:04;1.42;;;1.10;;
26578;SDS011;14227;47.674;19.320;2023-07-29T10:08:31;2.20;;;1.30;;
26578;SDS011;14227;47.674;19.320;2023-07-29T10:11:00;3.85;;;1.00;;
26578;SDS011;14227;47.674;19.320;2023-07-29T10:13:27;5.30;;;1.30;;
26578;SDS011;14227;47.674;19.320;2023-07-29T10:15:53;1.35;;;1.25;;
26578;SDS011;14227;47.674;19.320;2023-07-29T10:18:21;1.45;;;1.30;;
26578;SDS011;14227;47.674;19.320;2023-07-29T10:20:48;1.30;;;1.20;;
26578;SDS011;14227;47.674;19.320;2023-07-29T10:23:17;1.35;;;1.20;;
26578;SDS011;14227;47.674;19.320;2023-07-29T10:25:46;1.17;;;1.08;;
26578;SDS011;14227;47.674;19.320;2023-07-29T10:28:15;2.88;;;0.98;;
26578;SDS011;14227;47.674;19.320;2023-07-29T10:30:43;1.13;;;1.08;;
26578;SDS011;14227;47.674;19.320;2023-07-29T10:33:09;1.10;;;1.00;;
26578;SDS011;14227;47.674;19.320;2023-07-29T10:35:35;3.58;;;0.95;;
26578;SDS011;14227;47.674;19.320;2023-07-29T10:38:02;3.22;;;1.00;;
26578;SDS011;14227;47.674;19.320;2023-07-29T10:40:50;2.83;;;1.08;;
26578;SDS011;14227;47.674;19.320;2023-07-29T10:43:25;0.93;;;0.82;;
26578;SDS011;14227;47.674;19.320;2023-07-29T10:45:51;2.30;;;0.88;;
26578;SDS011;14227;47.674;19.320;2023-07-29T10:53:58;1.50;;;1.02;;
26578;SDS011;14227;47.674;19.320;2023-07-29T10:56:28;1.15;;;1.05;;
26578;SDS011;14227;47.674;19.320;2023-07-29T10:58:59;0.80;;;0.75;;
26578;SDS011;14227;47.674;19.320;2023-07-29T11:04:47;1.02;;;0.93;;
26578;SDS011;14227;47.674;19.320;2023-07-29T11:09:51;1.38;;;1.27;;
26578;SDS011;14227;47.674;19.320;2023-07-29T11:15:03;2.38;;;1.00;;
26578;SDS011;14227;47.674;19.320;2023-07-29T11:17:36;2.20;;;0.90;;
26578;SDS011;14227;47.674;19.320;2023-07-29T11:20:05;3.22;;;1.00;;
26578;SDS011;14227;47.674;19.320;2023-07-29T11:22:34;2.47;;;1.00;;
26578;SDS011;14227;47.674;19.320;2023-07-29T11:25:00;0.75;;;0.75;;
26578;SDS011;14227;47.674;19.320;2023-07-29T11:27:26;2.10;;;1.15;;
26578;SDS011;14227;47.674;19.320;2023-07-29T11:29:59;3.03;;;1.10;;
26578;SDS011;14227;47.674;19.320;2023-07-29T11:32:25;4.05;;;1.17;;
26578;SDS011;14227;47.674;19.320;2023-07-29T11:34:51;1.58;;;1.30;;
26578;SDS011;14227;47.674;19.320;2023-07-29T11:37:17;1.05;;;0.90;;
26578;SDS011;14227;47.674;19.320;2023-07-29T11:39:46;1.10;;;1.00;;
26578;SDS011;14227;47.674;19.320;2023-07-29T11:42:12;1.20;;;1.00;;
26578;SDS011;14227;47.674;19.320;2023-07-29T11:44:38;3.20;;;1.00;;
26578;SDS011;14227;47.674;19.320;2023-07-29T11:47:07;3.30;;;1.10;;
26578;SDS011;14227;47.674;19.320;2023-07-29T11:49:34;2.55;;;1.00;;
26578;SDS011;14227;47.674;19.320;2023-07-29T11:52:00;1.80;;;1.05;;
26578;SDS011;14227;47.674;19.320;2023-07-29T11:54:27;2.38;;;0.93;;
26578;SDS011;14227;47.674;19.320;2023-07-29T11:56:54;1.13;;;1.00;;
26578;SDS011;14227;47.674;19.320;2023-07-29T11:59:20;1.27;;;1.17;;
26578;SDS011;14227;47.674;19.320;2023-07-29T12:01:46;3.05;;;1.20;;
26578;SDS011;14227;47.674;19.320;2023-07-29T12:04:12;1.80;;;1.17;;
26578;SDS011;14227;47.674;19.320;2023-07-29T12:06:39;1.10;;;0.95;;
26578;SDS011;14227;47.674;19.320;2023-07-29T12:09:06;1.30;;;1.20;;
26578;SDS011;14227;47.674;19.320;2023-07-29T12:11:32;2.95;;;1.02;;
26578;SDS011;14227;47.674;19.320;2023-07-29T12:13:59;2.30;;;0.85;;
26578;SDS011;14227;47.674;19.320;2023-07-29T12:16:25;1.20;;;1.10;;
26578;SDS011;14227;47.674;19.320;2023-07-29T12:18:51;2.05;;;0.93;;
26578;SDS011;14227;47.674;19.320;2023-07-29T12:21:18;1.48;;;1.00;;
26578;SDS011;14227;47.674;19.320;2023-07-29T12:23:44;1.10;;;1.10;;
26578;SDS011;14227;47.674;19.320;2023-07-29T12:26:10;2.90;;;1.27;;
26578;SDS011;14227;47.674;19.320;2023-07-29T12:28:36;2.35;;;1.00;;
26578;SDS011;14227;47.674;19.320;2023-07-29T12:31:01;1.17;;;1.08;;
26578;SDS011;14227;47.674;19.320;2023-07-29T12:33:32;1.00;;;0.90;;
26578;SDS011;14227;47.674;19.320;2023-07-29T12:36:00;1.05;;;1.00;;
26578;SDS011;14227;47.674;19.320;2023-07-29T12:38:26;1.10;;;1.00;;
26578;SDS011;14227;47.674;19.320;2023-07-29T12:40:54;1.83;;;1.13;;
26578;SDS011;14227;47.674;19.320;2023-07-29T12:43:20;1.33;;;1.10;;
26578;SDS011;14227;47.674;19.320;2023-07-29T12:45:49;4.63;;;1.20;;
26578;SDS011;14227;47.674;19.320;2023-07-29T12:48:14;1.25;;;1.10;;
26578;SDS011;14227;47.674;19.320;2023-07-29T12:50:40;3.38;;;1.20;;
26578;SDS011;14227;47.674;19.320;2023-07-29T12:53:06;2.13;;;1.15;;
26578;SDS011;14227;47.674;19.320;2023-07-29T12:55:33;2.33;;;1.10;;
26578;SDS011;14227;47.674;19.320;2023-07-29T12:57:59;1.63;;;1.25;;
26578;SDS011;14227;47.674;19.320;2023-07-29T13:00:25;1.20;;;1.10;;
26578;SDS011;14227;47.674;19.320;2023-07-29T13:02:51;1.38;;;1.27;;
26578;SDS011;14227;47.674;19.320;2023-07-29T13:05:17;1.98;;;1.10;;
26578;SDS011;14227;47.674;19.320;2023-07-29T13:07:43;1.40;;;1.10;;
26578;SDS011;14227;47.674;19.320;2023-07-29T13:10:12;4.45;;;1.90;;
26578;SDS011;14227;47.674;19.320;2023-07-29T13:12:38;5.40;;;3.70;;
26578;SDS011;14227;47.674;19.320;2023-07-29T13:15:04;13.88;;;12.48;;
26578;SDS011;14227;47.674;19.320;2023-07-29T13:17:31;3.53;;;1.17;;
26578;SDS011;14227;47.674;19.320;2023-07-29T13:19:57;1.38;;;1.27;;
26578;SDS011;14227;47.674;19.320;2023-07-29T13:22:23;1.70;;;1.30;;
26578;SDS011;14227;47.674;19.320;2023-07-29T13:24:48;2.58;;;1.65;;
26578;SDS011;14227;47.674;19.320;2023-07-29T13:27:14;1.50;;;1.40;;
26578;SDS011;14227;47.674;19.320;2023-07-29T13:29:40;2.35;;;1.20;;
26578;SDS011;14227;47.674;19.320;2023-07-29T13:32:06;1.13;;;1.13;;
26578;SDS011;14227;47.674;19.320;2023-07-29T13:34:32;3.10;;;1.67;;
26578;SDS011;14227;47.674;19.320;2023-07-29T13:36:59;2.83;;;1.23;;
26578;SDS011;14227;47.674;19.320;2023-07-29T13:39:25;1.50;;;1.30;;
26578;SDS011;14227;47.674;19.320;2023-07-29T13:41:52;2.47;;;1.20;;
26578;SDS011;14227;47.674;19.320;2023-07-29T13:44:18;3.05;;;1.40;;
26578;SDS011;14227;47.674;19.320;2023-07-29T13:46:43;1.33;;;1.23;;
26578;SDS011;14227;47.674;19.320;2023-07-29T13:49:09;2.63;;;1.55;;
26578;SDS011;14227;47.674;19.320;2023-07-29T13:51:35;4.78;;;1.30;;
26578;SDS011;14227;47.674;19.320;2023-07-29T13:54:00;2.40;;;1.60;;
26578;SDS011;14227;47.674;19.320;2023-07-29T13:56:26;4.03;;;1.63;;
26578;SDS011;14227;47.674;19.320;2023-07-29T13:58:52;22.48;;;1.65;;
26578;SDS011;14227;47.674;19.320;2023-07-29T14:01:18;5.10;;;1.67;;
26578;SDS011;14227;47.674;19.320;2023-07-29T14:03:43;3.35;;;3.03;;
26578;SDS011;14227;47.674;19.320;2023-07-29T14:06:09;3.28;;;1.33;;
26578;SDS011;14227;47.674;19.320;2023-07-29T14:08:35;2.95;;;1.35;;
26578;SDS011;14227;47.674;19.320;2023-07-29T14:11:01;2.85;;;2.55;;
26578;SDS011;14227;47.674;19.320;2023-07-29T14:13:32;2.95;;;1.48;;
26578;SDS011;14227;47.674;19.320;2023-07-29T14:16:04;2.70;;;1.88;;
26578;SDS011;14227;47.674;19.320;2023-07-29T14:18:30;4.07;;;1.83;;
26578;SDS011;14227;47.674;19.320;2023-07-29T14:20:56;6.80;;;1.85;;
26578;SDS011;14227;47.674;19.320;2023-07-29T14:23:21;3.20;;;1.50;;
26578;SDS011;14227;47.674;19.320;2023-07-29T14:25:47;1.83;;;1.40;;
26578;SDS011;14227;47.674;19.320;2023-07-29T14:28:13;2.83;;;1.92;;
26578;SDS011;14227;47.674;19.320;2023-07-29T14:30:39;2.10;;;1.60;;
26578;SDS011;14227;47.674;19.320;2023-07-29T14:33:06;3.15;;;1.95;;
26578;SDS011;14227;47.674;19.320;2023-07-29T14:35:32;2.03;;;1.83;;
26578;SDS011;14227;47.674;19.320;2023-07-29T14:37:57;2.58;;;1.80;;
26578;SDS011;14227;47.674;19.320;2023-07-29T14:40:23;2.88;;;1.50;;
26578;SDS011;14227;47.674;19.320;2023-07-29T14:42:49;1.50;;;1.40;;
26578;SDS011;14227;47.674;19.320;2023-07-29T14:45:14;5.80;;;1.60;;
26578;SDS011;14227;47.674;19.320;2023-07-29T14:47:40;2.00;;;1.83;;
26578;SDS011;14227;47.674;19.320;2023-07-29T14:50:08;5.72;;;1.85;;
26578;SDS011;14227;47.674;19.320;2023-07-29T14:52:34;2.22;;;1.40;;
26578;SDS011;14227;47.674;19.320;2023-07-29T14:55:00;1.20;;;1.05;;
26578;SDS011;14227;47.674;19.320;2023-07-29T14:57:25;1.38;;;1.20;;
26578;SDS011;14227;47.674;19.320;2023-07-29T14:59:51;1.60;;;1.50;;